sensor_id;sensor_type;location;lat;lon;timestamp;pressure;altitude;pressure_sealevel;temperature;humidity
60061;BME280;45933;51.336;12.612;2024-02-15T00:00:36;100144.38;;;10.59;71.86
60061;BME280;45933;51.336;12.612;2024-02-15T00:03:02;100144.38;;;10.59;71.57
60061;BME280;45933;51.336;12.612;2024-02-15T00:05:28;100139.16;;;10.60;70.95
60061;BME280;45933;51.336;12.612;2024-02-15T00:07:53;100142.59;;;10.64;70.96
60061;BME280;45933;51.336;12.612;2024-02-15T00:10:19;100131.34;;;10.57;71.56
60061;BME280;45933;51.336;12.612;2024-02-15T00:12:46;100138.28;;;10.61;71.36
60061;BME280;45933;51.336;12.612;2024-02-15T00:15:13;100141.75;;;10.59;71.63
60061;BME280;45933;51.336;12.612;2024-02-15T00:17:38;100137.41;;;10.62;71.43
60061;BME280;45933;51.336;12.612;2024-02-15T00:20:04;100131.31;;;10.63;71.24
60061;BME280;45933;51.336;12.612;2024-02-15T00:22:34;100129.56;;;10.64;71.45
60061;BME280;45933;51.336;12.612;2024-02-15T00:25:00;100130.44;;;10.67;71.11
60061;BME280;45933;51.336;12.612;2024-02-15T00:27:25;100137.41;;;10.62;71.99
60061;BME280;45933;51.336;12.612;2024-02-15T00:29:50;100136.50;;;10.68;71.36
60061;BME280;45933;51.336;12.612;2024-02-15T00:32:15;100138.25;;;10.70;71.28
60061;BME280;45933;51.336;12.612;2024-02-15T00:34:41;100134.75;;;10.70;71.35
60061;BME280;45933;51.336;12.612;2024-02-15T00:37:06;100136.50;;;10.72;71.44
60061;BME280;45933;51.336;12.612;2024-02-15T00:39:32;100137.38;;;10.68;71.64
60061;BME280;45933;51.336;12.612;2024-02-15T00:41:57;100133.88;;;10.74;71.11
60061;BME280;45933;51.336;12.612;2024-02-15T00:44:25;100132.19;;;10.67;71.73
60061;BME280;45933;51.336;12.612;2024-02-15T00:46:50;100131.28;;;10.72;71.47
60061;BME280;45933;51.336;12.612;2024-02-15T00:49:15;100126.09;;;10.65;72.67
60061;BME280;45933;51.336;12.612;2024-02-15T00:51:41;100129.53;;;10.73;71.45
60061;BME280;45933;51.336;12.612;2024-02-15T00:54:06;100128.66;;;10.74;71.32
60061;BME280;45933;51.336;12.612;2024-02-15T00:56:31;100132.13;;;10.73;71.08
60061;BME280;45933;51.336;12.612;2024-02-15T00:58:59;100132.13;;;10.70;71.06
60061;BME280;45933;51.336;12.612;2024-02-15T01:01:26;100133.88;;;10.74;71.28
60061;BME280;45933;51.336;12.612;2024-02-15T01:03:51;100137.34;;;10.76;70.84
60061;BME280;45933;51.336;12.612;2024-02-15T01:06:16;100135.63;;;10.72;71.65
60061;BME280;45933;51.336;12.612;2024-02-15T01:08:42;100135.59;;;10.75;71.03
60061;BME280;45933;51.336;12.612;2024-02-15T01:11:07;100135.59;;;10.73;71.08
60061;BME280;45933;51.336;12.612;2024-02-15T01:13:32;100138.22;;;10.77;70.68
60061;BME280;45933;51.336;12.612;2024-02-15T01:15:58;100141.66;;;10.76;71.19
60061;BME280;45933;51.336;12.612;2024-02-15T01:18:23;100140.81;;;10.78;71.24
60061;BME280;45933;51.336;12.612;2024-02-15T01:20:49;100144.28;;;10.79;71.29
60061;BME280;45933;51.336;12.612;2024-02-15T01:23:14;100143.41;;;10.80;71.13
60061;BME280;45933;51.336;12.612;2024-02-15T01:25:40;100146.00;;;10.80;71.16
60061;BME280;45933;51.336;12.612;2024-02-15T01:28:06;100134.69;;;10.81;71.16
60061;BME280;45933;51.336;12.612;2024-02-15T01:30:31;100136.47;;;10.77;71.48
60061;BME280;45933;51.336;12.612;2024-02-15T01:32:57;100136.44;;;10.83;71.15
60061;BME280;45933;51.336;12.612;2024-02-15T01:35:22;100137.34;;;10.78;71.57
60061;BME280;45933;51.336;12.612;2024-02-15T01:37:48;100140.81;;;10.77;72.04
60061;BME280;45933;51.336;12.612;2024-02-15T01:40:13;100139.91;;;10.79;71.56
60061;BME280;45933;51.336;12.612;2024-02-15T01:42:38;100137.34;;;10.78;72.12
60061;BME280;45933;51.336;12.612;2024-02-15T01:45:05;100129.47;;;10.84;71.30
60061;BME280;45933;51.336;12.612;2024-02-15T01:47:31;100136.44;;;10.82;71.56
60061;BME280;45933;51.336;12.612;2024-02-15T01:49:56;100128.59;;;10.80;71.56
60061;BME280;45933;51.336;12.612;2024-02-15T01:52:21;100129.47;;;10.84;71.08
60061;BME280;45933;51.336;12.612;2024-02-15T01:54:47;100133.81;;;10.85;71.48
60061;BME280;45933;51.336;12.612;2024-02-15T01:57:13;100132.06;;;10.87;71.66
60061;BME280;45933;51.336;12.612;2024-02-15T01:59:38;100135.53;;;10.87;71.59
60061;BME280;45933;51.336;12.612;2024-02-15T02:02:08;100125.06;;;10.93;71.13
60061;BME280;45933;51.336;12.612;2024-02-15T02:04:37;100123.38;;;10.86;71.38
60061;BME280;45933;51.336;12.612;2024-02-15T02:07:03;100121.66;;;10.84;71.70
60061;BME280;45933;51.336;12.612;2024-02-15T02:09:28;100120.78;;;10.83;71.82
60061;BME280;45933;51.336;12.612;2024-02-15T02:11:54;100121.66;;;10.87;72.07
60061;BME280;45933;51.336;12.612;2024-02-15T02:14:19;100119.03;;;10.84;71.81
60061;BME280;45933;51.336;12.612;2024-02-15T02:16:45;100126.84;;;10.85;71.78
60061;BME280;45933;51.336;12.612;2024-02-15T02:19:11;100121.63;;;10.88;71.83
60061;BME280;45933;51.336;12.612;2024-02-15T02:21:37;100122.50;;;10.86;72.17
60061;BME280;45933;51.336;12.612;2024-02-15T02:24:04;100122.47;;;10.89;71.85
60061;BME280;45933;51.336;12.612;2024-02-15T02:26:34;100124.19;;;10.91;71.62
60061;BME280;45933;51.336;12.612;2024-02-15T02:29:00;100127.69;;;10.92;71.61
60061;BME280;45933;51.336;12.612;2024-02-15T02:31:32;100127.63;;;10.96;71.88
60061;BME280;45933;51.336;12.612;2024-02-15T02:33:57;100124.19;;;10.97;71.33
60061;BME280;45933;51.336;12.612;2024-02-15T02:36:23;100129.38;;;10.99;71.13
60061;BME280;45933;51.336;12.612;2024-02-15T02:38:51;100128.50;;;11.00;71.74
60061;BME280;45933;51.336;12.612;2024-02-15T02:41:17;100129.38;;;10.99;71.77
60061;BME280;45933;51.336;12.612;2024-02-15T02:43:44;100125.03;;;10.99;71.45
60061;BME280;45933;51.336;12.612;2024-02-15T02:46:10;100121.53;;;11.02;71.53
60061;BME280;45933;51.336;12.612;2024-02-15T02:48:36;100123.25;;;11.02;71.71
60061;BME280;45933;51.336;12.612;2024-02-15T02:51:02;100119.75;;;11.06;71.04
60061;BME280;45933;51.336;12.612;2024-02-15T02:53:27;100124.16;;;10.96;72.37
60061;BME280;45933;51.336;12.612;2024-02-15T02:55:54;100117.16;;;11.04;71.86
60061;BME280;45933;51.336;12.612;2024-02-15T02:58:21;100124.13;;;11.05;71.78
60061;BME280;45933;51.336;12.612;2024-02-15T03:00:46;100121.50;;;11.08;71.54
60061;BME280;45933;51.336;12.612;2024-02-15T03:03:12;100117.16;;;11.09;71.54
60061;BME280;45933;51.336;12.612;2024-02-15T03:05:37;100118.03;;;11.08;72.07
60061;BME280;45933;51.336;12.612;2024-02-15T03:08:05;100117.13;;;11.07;71.98
60061;BME280;45933;51.336;12.612;2024-02-15T03:10:30;100122.31;;;11.12;71.28
60061;BME280;45933;51.336;12.612;2024-02-15T03:12:56;100124.06;;;11.13;71.36
60061;BME280;45933;51.336;12.612;2024-02-15T03:15:22;100119.75;;;11.09;71.56
60061;BME280;45933;51.336;12.612;2024-02-15T03:17:48;100122.34;;;11.07;72.10
60061;BME280;45933;51.336;12.612;2024-02-15T03:20:13;100115.41;;;11.09;72.02
60061;BME280;45933;51.336;12.612;2024-02-15T03:22:58;100109.31;;;11.10;72.30
60061;BME280;45933;51.336;12.612;2024-02-15T03:25:28;100117.97;;;11.15;71.47
60061;BME280;45933;51.336;12.612;2024-02-15T03:27:56;100116.28;;;11.08;72.08
60061;BME280;45933;51.336;12.612;2024-02-15T03:30:24;100124.94;;;11.12;71.93
60061;BME280;45933;51.336;12.612;2024-02-15T03:32:49;100119.78;;;11.04;72.19
60061;BME280;45933;51.336;12.612;2024-02-15T03:35:20;100122.34;;;11.10;71.81
60061;BME280;45933;51.336;12.612;2024-02-15T03:37:45;100124.09;;;11.10;71.75
60061;BME280;45933;51.336;12.612;2024-02-15T03:40:11;100119.72;;;11.10;71.63
60061;BME280;45933;51.336;12.612;2024-02-15T03:42:37;100119.72;;;11.10;72.11
60061;BME280;45933;51.336;12.612;2024-02-15T03:45:05;100121.53;;;11.04;72.63
60061;BME280;45933;51.336;12.612;2024-02-15T03:47:35;100113.75;;;10.97;73.35
60061;BME280;45933;51.336;12.612;2024-02-15T03:50:04;100123.22;;;11.09;71.96
60061;BME280;45933;51.336;12.612;2024-02-15T03:52:30;100125.84;;;11.06;72.28
60061;BME280;45933;51.336;12.612;2024-02-15T03:54:58;100122.34;;;11.13;72.07
60061;BME280;45933;51.336;12.612;2024-02-15T03:57:25;100121.50;;;11.05;72.87
60061;BME280;45933;51.336;12.612;2024-02-15T03:59:50;100128.41;;;11.12;71.69
60061;BME280;45933;51.336;12.612;2024-02-15T04:02:18;100125.00;;;11.04;72.63
60061;BME280;45933;51.336;12.612;2024-02-15T04:04:43;100128.41;;;11.11;72.13
60061;BME280;45933;51.336;12.612;2024-02-15T04:07:12;100131.00;;;11.15;71.45
60061;BME280;45933;51.336;12.612;2024-02-15T04:09:37;100140.59;;;11.12;72.12
60061;BME280;45933;51.336;12.612;2024-02-15T04:12:02;100142.31;;;11.14;71.88
60061;BME280;45933;51.336;12.612;2024-02-15T04:14:28;100144.94;;;11.13;72.08
60061;BME280;45933;51.336;12.612;2024-02-15T04:16:53;100142.31;;;11.14;72.28
60061;BME280;45933;51.336;12.612;2024-02-15T04:19:18;100147.53;;;11.14;72.39
60061;BME280;45933;51.336;12.612;2024-02-15T04:21:47;100147.53;;;11.11;72.24
60061;BME280;45933;51.336;12.612;2024-02-15T04:24:12;100144.88;;;11.17;71.89
60061;BME280;45933;51.336;12.612;2024-02-15T04:26:38;100147.50;;;11.17;72.05
60061;BME280;45933;51.336;12.612;2024-02-15T04:29:03;100142.31;;;11.16;72.22
60061;BME280;45933;51.336;12.612;2024-02-15T04:31:29;100144.06;;;11.14;72.69
60061;BME280;45933;51.336;12.612;2024-02-15T04:33:55;100144.94;;;11.13;72.16
60061;BME280;45933;51.336;12.612;2024-02-15T04:36:21;100144.94;;;11.14;72.11
60061;BME280;45933;51.336;12.612;2024-02-15T04:38:51;100144.03;;;11.15;72.15
60061;BME280;45933;51.336;12.612;2024-02-15T04:41:17;100146.69;;;11.14;72.33
60061;BME280;45933;51.336;12.612;2024-02-15T04:43:49;100149.25;;;11.20;71.43
60061;BME280;45933;51.336;12.612;2024-02-15T04:46:14;100141.44;;;11.12;72.61
60061;BME280;45933;51.336;12.612;2024-02-15T04:48:40;100139.66;;;11.17;71.91
60061;BME280;45933;51.336;12.612;2024-02-15T04:51:09;100148.38;;;11.19;71.72
60061;BME280;45933;51.336;12.612;2024-02-15T04:53:35;100140.56;;;11.16;72.21
60061;BME280;45933;51.336;12.612;2024-02-15T04:56:01;100141.44;;;11.18;71.88
60061;BME280;45933;51.336;12.612;2024-02-15T04:58:31;100156.22;;;11.15;72.17
60061;BME280;45933;51.336;12.612;2024-02-15T05:00:58;100153.59;;;11.19;71.88
60061;BME280;45933;51.336;12.612;2024-02-15T05:03:24;100141.44;;;11.15;72.08
60061;BME280;45933;51.336;12.612;2024-02-15T05:05:49;100139.69;;;11.16;71.75
60061;BME280;45933;51.336;12.612;2024-02-15T05:08:15;100140.56;;;11.16;71.84
60061;BME280;45933;51.336;12.612;2024-02-15T05:10:40;100144.91;;;11.19;72.06
60061;BME280;45933;51.336;12.612;2024-02-15T05:13:06;100144.00;;;11.21;71.70
60061;BME280;45933;51.336;12.612;2024-02-15T05:15:31;100141.44;;;11.15;72.13
60061;BME280;45933;51.336;12.612;2024-02-15T05:17:58;100140.56;;;11.15;72.19
60061;BME280;45933;51.336;12.612;2024-02-15T05:20:23;100141.38;;;11.21;71.64
60061;BME280;45933;51.336;12.612;2024-02-15T05:22:50;100134.50;;;11.13;72.34
60061;BME280;45933;51.336;12.612;2024-02-15T05:25:15;100145.78;;;11.15;72.37
60061;BME280;45933;51.336;12.612;2024-02-15T05:27:41;100144.00;;;11.21;71.47
60061;BME280;45933;51.336;12.612;2024-02-15T05:30:08;100150.06;;;11.22;71.67
60061;BME280;45933;51.336;12.612;2024-02-15T05:32:34;100148.34;;;11.21;71.80
60061;BME280;45933;51.336;12.612;2024-02-15T05:35:11;100146.66;;;11.15;72.61
60061;BME280;45933;51.336;12.612;2024-02-15T05:37:38;100151.84;;;11.20;71.75
60061;BME280;45933;51.336;12.612;2024-02-15T05:40:04;100152.69;;;11.23;71.54
60061;BME280;45933;51.336;12.612;2024-02-15T05:42:30;100156.16;;;11.22;71.76
60061;BME280;45933;51.336;12.612;2024-02-15T05:44:55;100159.66;;;11.24;71.56
60061;BME280;45933;51.336;12.612;2024-02-15T05:47:20;100163.97;;;11.27;71.66
60061;BME280;45933;51.336;12.612;2024-02-15T05:49:45;100161.34;;;11.27;71.38
60061;BME280;45933;51.336;12.612;2024-02-15T05:52:12;100161.34;;;11.27;71.76
60061;BME280;45933;51.336;12.612;2024-02-15T05:54:37;100156.13;;;11.27;71.57
60061;BME280;45933;51.336;12.612;2024-02-15T05:57:03;100148.34;;;11.24;72.27
60061;BME280;45933;51.336;12.612;2024-02-15T05:59:29;100155.25;;;11.28;71.49
60061;BME280;45933;51.336;12.612;2024-02-15T06:01:54;100157.84;;;11.28;71.63
60061;BME280;45933;51.336;12.612;2024-02-15T06:04:19;100166.56;;;11.30;71.41
60061;BME280;45933;51.336;12.612;2024-02-15T06:06:44;100156.09;;;11.32;71.52
60061;BME280;45933;51.336;12.612;2024-02-15T06:09:13;100145.69;;;11.27;71.83
60061;BME280;45933;51.336;12.612;2024-02-15T06:11:39;100145.72;;;11.25;71.68
60061;BME280;45933;51.336;12.612;2024-02-15T06:14:04;100144.00;;;11.24;71.48
60061;BME280;45933;51.336;12.612;2024-02-15T06:16:31;100147.50;;;11.17;71.91
60061;BME280;45933;51.336;12.612;2024-02-15T06:18:56;100146.59;;;11.21;71.79
60061;BME280;45933;51.336;12.612;2024-02-15T06:21:21;100157.91;;;11.22;71.52
60061;BME280;45933;51.336;12.612;2024-02-15T06:23:48;100155.41;;;11.08;72.74
60061;BME280;45933;51.336;12.612;2024-02-15T06:26:15;100166.66;;;11.18;71.97
60061;BME280;45933;51.336;12.612;2024-02-15T06:28:40;100166.66;;;11.15;72.27
60061;BME280;45933;51.336;12.612;2024-02-15T06:31:24;100164.94;;;11.12;72.16
60061;BME280;45933;51.336;12.612;2024-02-15T06:34:27;100168.38;;;11.19;71.63
60061;BME280;45933;51.336;12.612;2024-02-15T06:37:37;100174.41;;;11.25;71.67
60061;BME280;45933;51.336;12.612;2024-02-15T06:40:21;100170.16;;;11.14;71.71
60061;BME280;45933;51.336;12.612;2024-02-15T06:42:47;100162.34;;;11.11;72.07
60061;BME280;45933;51.336;12.612;2024-02-15T06:45:12;100159.75;;;11.09;72.24
60061;BME280;45933;51.336;12.612;2024-02-15T06:47:41;100164.09;;;11.07;72.66
60061;BME280;45933;51.336;12.612;2024-02-15T06:50:10;100164.19;;;10.93;73.14
60061;BME280;45933;51.336;12.612;2024-02-15T06:52:37;100168.44;;;11.07;72.19
60061;BME280;45933;51.336;12.612;2024-02-15T06:55:03;100171.06;;;11.05;72.20
60061;BME280;45933;51.336;12.612;2024-02-15T06:57:28;100179.75;;;11.09;72.04
60061;BME280;45933;51.336;12.612;2024-02-15T06:59:54;100167.66;;;10.95;72.96
60061;BME280;45933;51.336;12.612;2024-02-15T07:02:19;100174.59;;;10.98;73.10
60061;BME280;45933;51.336;12.612;2024-02-15T07:04:44;100174.53;;;11.07;72.16
60061;BME280;45933;51.336;12.612;2024-02-15T07:07:10;100182.38;;;11.06;72.00
60061;BME280;45933;51.336;12.612;2024-02-15T07:09:37;100178.88;;;11.08;71.92
60061;BME280;45933;51.336;12.612;2024-02-15T07:12:02;100183.25;;;11.08;72.14
60061;BME280;45933;51.336;12.612;2024-02-15T07:14:27;100180.63;;;11.05;72.54
60061;BME280;45933;51.336;12.612;2024-02-15T07:16:53;100175.44;;;11.05;73.00
60061;BME280;45933;51.336;12.612;2024-02-15T07:19:21;100178.81;;;11.16;72.62
60061;BME280;45933;51.336;12.612;2024-02-15T07:21:46;100172.75;;;11.18;72.36
60061;BME280;45933;51.336;12.612;2024-02-15T07:24:12;100177.03;;;11.22;72.31
60061;BME280;45933;51.336;12.612;2024-02-15T07:26:38;100178.72;;;11.28;72.29
60061;BME280;45933;51.336;12.612;2024-02-15T07:29:03;100176.13;;;11.31;72.18
60061;BME280;45933;51.336;12.612;2024-02-15T07:31:33;100176.09;;;11.34;72.25
60061;BME280;45933;51.336;12.612;2024-02-15T07:33:58;100177.81;;;11.37;72.26
60061;BME280;45933;51.336;12.612;2024-02-15T07:36:24;100183.00;;;11.44;71.98
60061;BME280;45933;51.336;12.612;2024-02-15T07:38:50;100184.69;;;11.48;71.80
60061;BME280;45933;51.336;12.612;2024-02-15T07:41:17;100189.91;;;11.50;71.86
60061;BME280;45933;51.336;12.612;2024-02-15T07:43:43;100191.59;;;11.57;71.67
60061;BME280;45933;51.336;12.612;2024-02-15T07:46:12;100188.06;;;11.63;71.44
60061;BME280;45933;51.336;12.612;2024-02-15T07:48:38;100191.53;;;11.66;71.26
60061;BME280;45933;51.336;12.612;2024-02-15T07:51:04;100188.84;;;11.72;71.02
60061;BME280;45933;51.336;12.612;2024-02-15T07:53:31;100185.38;;;11.72;71.13
60061;BME280;45933;51.336;12.612;2024-02-15T07:55:56;100188.84;;;11.72;71.39
60061;BME280;45933;51.336;12.612;2024-02-15T07:58:23;100179.28;;;11.73;71.11
60061;BME280;45933;51.336;12.612;2024-02-15T08:00:48;100181.03;;;11.71;71.60
60061;BME280;45933;51.336;12.612;2024-02-15T08:03:13;100185.31;;;11.81;70.92
60061;BME280;45933;51.336;12.612;2024-02-15T08:05:39;100177.47;;;11.79;70.88
60061;BME280;45933;51.336;12.612;2024-02-15T08:08:05;100183.53;;;11.88;70.96
60061;BME280;45933;51.336;12.612;2024-02-15T08:10:31;100194.81;;;11.90;70.72
60061;BME280;45933;51.336;12.612;2024-02-15T08:12:56;100191.31;;;11.94;70.93
60061;BME280;45933;51.336;12.612;2024-02-15T08:15:23;100183.44;;;11.95;70.83
60061;BME280;45933;51.336;12.612;2024-02-15T08:17:49;100181.69;;;11.96;70.76
60061;BME280;45933;51.336;12.612;2024-02-15T08:20:15;100185.19;;;11.98;70.52
60061;BME280;45933;51.336;12.612;2024-02-15T08:22:46;100179.03;;;12.03;70.44
60061;BME280;45933;51.336;12.612;2024-02-15T08:25:12;100181.59;;;12.08;70.33
60061;BME280;45933;51.336;12.612;2024-02-15T08:27:40;100168.50;;;12.10;70.60
60061;BME280;45933;51.336;12.612;2024-02-15T08:30:12;100170.22;;;12.11;70.57
60061;BME280;45933;51.336;12.612;2024-02-15T08:32:41;100174.50;;;12.19;70.29
60061;BME280;45933;51.336;12.612;2024-02-15T08:35:08;100170.13;;;12.21;70.25
60061;BME280;45933;51.336;12.612;2024-02-15T08:37:36;100173.59;;;12.23;70.33
60061;BME280;45933;51.336;12.612;2024-02-15T08:40:04;100165.69;;;12.28;70.52
60061;BME280;45933;51.336;12.612;2024-02-15T08:42:30;100172.56;;;12.34;70.25
60061;BME280;45933;51.336;12.612;2024-02-15T08:44:55;100172.53;;;12.38;70.38
60061;BME280;45933;51.336;12.612;2024-02-15T08:47:20;100170.78;;;12.39;70.44
60061;BME280;45933;51.336;12.612;2024-02-15T08:49:46;100173.25;;;12.49;70.21
60061;BME280;45933;51.336;12.612;2024-02-15T08:52:11;100169.72;;;12.56;69.87
60061;BME280;45933;51.336;12.612;2024-02-15T08:54:36;100178.38;;;12.60;69.76
60061;BME280;45933;51.336;12.612;2024-02-15T08:57:04;100173.94;;;12.65;69.65
60061;BME280;45933;51.336;12.612;2024-02-15T08:59:29;100177.38;;;12.70;69.27
60061;BME280;45933;51.336;12.612;2024-02-15T09:01:55;100183.41;;;12.77;69.35
60061;BME280;45933;51.336;12.612;2024-02-15T09:04:22;100178.16;;;12.78;69.17
60061;BME280;45933;51.336;12.612;2024-02-15T09:06:49;100180.75;;;12.81;68.94
60061;BME280;45933;51.336;12.612;2024-02-15T09:09:14;100181.53;;;12.87;68.94
60061;BME280;45933;51.336;12.612;2024-02-15T09:11:39;100174.50;;;12.90;69.35
60061;BME280;45933;51.336;12.612;2024-02-15T09:14:05;100176.19;;;12.94;68.88
60061;BME280;45933;51.336;12.612;2024-02-15T09:16:31;100171.06;;;12.88;68.90
60061;BME280;45933;51.336;12.612;2024-02-15T09:18:56;100174.41;;;12.98;68.87
60061;BME280;45933;51.336;12.612;2024-02-15T09:21:25;100175.25;;;13.00;68.85
60061;BME280;45933;51.336;12.612;2024-02-15T09:23:53;100172.59;;;13.03;68.69
60061;BME280;45933;51.336;12.612;2024-02-15T09:26:18;100174.34;;;13.01;68.79
60061;BME280;45933;51.336;12.612;2024-02-15T09:28:44;100169.88;;;13.09;68.83
60061;BME280;45933;51.336;12.612;2024-02-15T09:31:12;100168.06;;;13.14;68.86
60061;BME280;45933;51.336;12.612;2024-02-15T09:33:38;100167.16;;;13.18;68.78
60061;BME280;45933;51.336;12.612;2024-02-15T09:36:04;100160.97;;;13.22;68.40
60061;BME280;45933;51.336;12.612;2024-02-15T09:38:29;100167.91;;;13.26;68.44
60061;BME280;45933;51.336;12.612;2024-02-15T09:40:54;100171.44;;;13.22;68.47
60061;BME280;45933;51.336;12.612;2024-02-15T09:43:20;100166.97;;;13.30;68.69
60061;BME280;45933;51.336;12.612;2024-02-15T09:45:47;100168.63;;;13.36;68.29
60061;BME280;45933;51.336;12.612;2024-02-15T09:48:13;100166.75;;;13.46;68.61
60061;BME280;45933;51.336;12.612;2024-02-15T09:50:41;100167.44;;;13.57;68.25
60061;BME280;45933;51.336;12.612;2024-02-15T09:53:10;100171.06;;;13.48;68.18
60061;BME280;45933;51.336;12.612;2024-02-15T09:55:36;100169.72;;;13.77;68.46
60061;BME280;45933;51.336;12.612;2024-02-15T09:58:04;100168.59;;;13.90;67.82
60061;BME280;45933;51.336;12.612;2024-02-15T10:00:31;100173.56;;;14.05;67.72
60061;BME280;45933;51.336;12.612;2024-02-15T10:02:57;100172.41;;;14.20;67.44
60061;BME280;45933;51.336;12.612;2024-02-15T10:05:23;100171.06;;;14.46;67.93
60061;BME280;45933;51.336;12.612;2024-02-15T10:07:48;100175.84;;;14.69;67.12
60061;BME280;45933;51.336;12.612;2024-02-15T10:10:24;100166.47;;;14.97;67.25
60061;BME280;45933;51.336;12.612;2024-02-15T10:12:52;100175.75;;;15.13;65.33
60061;BME280;45933;51.336;12.612;2024-02-15T10:15:32;100171.31;;;15.53;65.36
60061;BME280;45933;51.336;12.612;2024-02-15T10:18:00;100170.94;;;15.69;64.55
60061;BME280;45933;51.336;12.612;2024-02-15T10:20:25;100166.09;;;15.87;63.63
60061;BME280;45933;51.336;12.612;2024-02-15T10:25:28;100163.91;;;16.04;61.95
60061;BME280;45933;51.336;12.612;2024-02-15T10:28:11;100171.28;;;16.24;62.75
60061;BME280;45933;51.336;12.612;2024-02-15T10:30:38;100169.97;;;16.06;61.62
60061;BME280;45933;51.336;12.612;2024-02-15T10:33:04;100179.97;;;16.26;60.90
60061;BME280;45933;51.336;12.612;2024-02-15T10:35:31;100171.91;;;16.32;60.52
60061;BME280;45933;51.336;12.612;2024-02-15T10:38:09;100171.91;;;16.32;60.25
60061;BME280;45933;51.336;12.612;2024-02-15T10:40:36;100167.63;;;16.28;60.90
60061;BME280;45933;51.336;12.612;2024-02-15T10:43:05;100164.97;;;16.30;60.72
60061;BME280;45933;51.336;12.612;2024-02-15T10:45:32;100163.56;;;16.16;60.32
60061;BME280;45933;51.336;12.612;2024-02-15T10:47:57;100168.22;;;16.07;60.36
60061;BME280;45933;51.336;12.612;2024-02-15T10:50:23;100165.88;;;15.96;60.79
60061;BME280;45933;51.336;12.612;2024-02-15T10:52:57;100164.59;;;15.78;60.44
60061;BME280;45933;51.336;12.612;2024-02-15T10:55:40;100164.59;;;15.78;60.78
60061;BME280;45933;51.336;12.612;2024-02-15T10:58:06;100164.94;;;15.64;61.54
60061;BME280;45933;51.336;12.612;2024-02-15T11:00:35;100163.19;;;15.63;61.50
60061;BME280;45933;51.336;12.612;2024-02-15T11:03:03;100153.63;;;15.59;61.60
60061;BME280;45933;51.336;12.612;2024-02-15T11:05:35;100148.63;;;15.50;61.08
60061;BME280;45933;51.336;12.612;2024-02-15T11:08:04;100151.25;;;15.50;61.46
60061;BME280;45933;51.336;12.612;2024-02-15T11:10:30;100149.50;;;15.51;61.67
60061;BME280;45933;51.336;12.612;2024-02-15T11:12:56;100142.47;;;15.51;61.82
60061;BME280;45933;51.336;12.612;2024-02-15T11:18:02;100136.38;;;15.49;61.93
60061;BME280;45933;51.336;12.612;2024-02-15T11:22:58;100136.38;;;15.49;62.01
60061;BME280;45933;51.336;12.612;2024-02-15T11:25:50;100127.34;;;15.59;62.15
60061;BME280;45933;51.336;12.612;2024-02-15T11:30:51;100124.03;;;15.53;62.25
60061;BME280;45933;51.336;12.612;2024-02-15T11:36:10;100119.41;;;15.64;61.98
60061;BME280;45933;51.336;12.612;2024-02-15T11:38:37;100111.53;;;15.62;61.55
60061;BME280;45933;51.336;12.612;2024-02-15T11:41:07;100124.50;;;15.70;61.85
60061;BME280;45933;51.336;12.612;2024-02-15T11:46:14;100123.34;;;15.80;61.35
60061;BME280;45933;51.336;12.612;2024-02-15T11:48:39;100123.28;;;15.82;61.48
60061;BME280;45933;51.336;12.612;2024-02-15T11:51:05;100119.88;;;15.80;61.36
60061;BME280;45933;51.336;12.612;2024-02-15T11:53:32;100118.94;;;15.82;60.97
60061;BME280;45933;51.336;12.612;2024-02-15T11:56:00;100122.19;;;15.90;61.49
60061;BME280;45933;51.336;12.612;2024-02-15T11:58:26;100120.47;;;15.89;61.14
60061;BME280;45933;51.336;12.612;2024-02-15T12:01:08;100118.53;;;15.96;61.01
60061;BME280;45933;51.336;12.612;2024-02-15T12:03:55;100120.06;;;16.05;60.36
60061;BME280;45933;51.336;12.612;2024-02-15T12:06:39;100119.94;;;16.09;60.67
60061;BME280;45933;51.336;12.612;2024-02-15T12:09:23;100104.06;;;16.12;60.57
60061;BME280;45933;51.336;12.612;2024-02-15T12:12:09;100102.28;;;16.14;59.68
60061;BME280;45933;51.336;12.612;2024-02-15T12:15:00;100101.88;;;16.28;60.33
60061;BME280;45933;51.336;12.612;2024-02-15T12:17:44;100112.31;;;16.31;59.73
60061;BME280;45933;51.336;12.612;2024-02-15T12:20:28;100102.56;;;16.35;59.41
60061;BME280;45933;51.336;12.612;2024-02-15T12:22:54;100093.78;;;16.36;59.61
60061;BME280;45933;51.336;12.612;2024-02-15T12:25:20;100092.88;;;16.37;58.84
60061;BME280;45933;51.336;12.612;2024-02-15T12:27:46;100092.47;;;16.51;59.31
60061;BME280;45933;51.336;12.612;2024-02-15T12:30:17;100086.16;;;16.56;59.36
60061;BME280;45933;51.336;12.612;2024-02-15T12:32:47;100089.59;;;16.58;59.27
60061;BME280;45933;51.336;12.612;2024-02-15T12:35:17;100091.03;;;16.68;59.12
60061;BME280;45933;51.336;12.612;2024-02-15T12:38:09;100100.78;;;16.65;59.00
60061;BME280;45933;51.336;12.612;2024-02-15T12:40:39;100087.69;;;16.63;58.04
60061;BME280;45933;51.336;12.612;2024-02-15T12:43:09;100084.91;;;16.68;58.93
60061;BME280;45933;51.336;12.612;2024-02-15T12:45:36;100086.53;;;16.73;59.34
60061;BME280;45933;51.336;12.612;2024-02-15T12:48:03;100084.56;;;16.80;59.24
60061;BME280;45933;51.336;12.612;2024-02-15T12:50:30;100079.22;;;16.83;58.45
60061;BME280;45933;51.336;12.612;2024-02-15T12:52:56;100082.44;;;16.93;58.89
60061;BME280;45933;51.336;12.612;2024-02-15T12:55:28;100076.81;;;17.04;58.64
60061;BME280;45933;51.336;12.612;2024-02-15T12:57:54;100075.91;;;17.05;58.20